Saturday, May 26, 2018, 6:17 AM EDT
Back to Local

KMVL, Morrisville Stowe State Airport

Location: Morrisville, VT, United States Lat: 44.533
Local Time: 6:17 AM EDT (10:17 GMT) Lon: -72.617
Time Zone: US/Eastern Elev: 731 ft

Show me the last for .
Show Decoded

2018-05-26 05:54 METAR KMVL 260954Z AUTO 00000KT 4SM -RA BR BKN044 BKN065 OVC090 16/16 A2972 RMK
                 AO2 RAB41 SLP064 P0001 T01610156 =
2018-05-26 04:54 METAR KMVL 260854Z AUTO 00000KT 10SM OVC041 16/16 A2971 RMK AO2 SLP058 60000
                 T01610156 55002 =
2018-05-26 03:54 METAR KMVL 260754Z AUTO 00000KT 10SM OVC047 16/15 A2970 RMK AO2 RAE0656 SLP056
                 P0000 T01610150 =
2018-05-26 02:54 METAR KMVL 260654Z AUTO 00000KT 10SM -RA BKN050 OVC070 16/16 A2971 RMK AO2 RAB46
                 SLP058 P0000 T01610156 =
2018-05-26 01:54 METAR KMVL 260554Z AUTO 00000KT 10SM BKN055 OVC100 16/16 A2971 RMK AO2 SLP060
                 60003 T01610156 10206 20156 58012 =
2018-05-26 00:54 METAR KMVL 260454Z AUTO 21003KT 10SM OVC055 16/16 A2972 RMK AO2 RAE35 SLP064
                 P0001 T01610156 402670061 =
2018-05-25 23:54 METAR KMVL 260354Z AUTO 19003KT 7SM -RA OVC060 16/16 A2975 RMK AO2 RAB40 SLP073
                 P0001 T01610156 =
2018-05-25 22:54 METAR KMVL 260254Z AUTO 00000KT 10SM OVC065 17/16 A2975 RMK AO2 RAB15E47 PRESFR
                 SLP071 P0001 60001 T01670156 58005 =
2018-05-25 21:54 METAR KMVL 260154Z AUTO VRB04KT 10SM BKN047 OVC060 19/14 A2977 RMK AO2 SLP078
                 T01940139 =
2018-05-25 20:54 METAR KMVL 260054Z AUTO 17004KT 10SM BKN060 OVC070 19/14 A2975 RMK AO2
                 RAE02B43E52 SLP073 P0000 T01940144 =
2018-05-25 19:54 METAR KMVL 252354Z AUTO VRB05KT 10SM -RA FEW060 OVC100 21/14 A2976 RMK AO2 RAB44
                 SLP077 P0000 60000 T02060144 10256 20206 53011 =
2018-05-25 18:54 METAR KMVL 252254Z AUTO 24004KT 10SM OVC060 23/12 A2974 RMK AO2 SLP068 T02330122
                 =
2018-05-25 17:54 METAR KMVL 252154Z AUTO 22007KT 190V250 10SM FEW060 24/13 A2973 RMK AO2 SLP064
                 T02390133 =
2018-05-25 16:54 METAR KMVL 252054Z AUTO 23007KT 200V270 10SM FEW060 SCT100 24/13 A2973 RMK AO2
                 SLP066 T02440133 58014 =
2018-05-25 15:54 METAR KMVL 251954Z AUTO 18003KT 10SM OVC055 21/16 A2975 RMK AO2 SLP075 T02110156
                 =
2018-05-25 14:54 METAR KMVL 251854Z AUTO 36003KT 10SM OVC065 21/16 A2976 RMK AO2 SLP077 T02110156
                 =
2018-05-25 13:54 METAR KMVL 251754Z AUTO 04005KT 10SM FEW060 OVC075 22/15 A2977 RMK AO2
                 RAB1659E11B36E45 SLP082 P0000 60000 T02220150 10267 20206 58016 =
2018-05-25 12:54 METAR KMVL 251654Z AUTO 29011G22KT 230V350 10SM BKN070 OVC110 25/11 A2980 RMK
                 AO2 SLP090 T02500111 =
2018-05-25 11:54 METAR KMVL 251554Z AUTO 25009G21KT 190V300 10SM CLR 26/11 A2980 RMK AO2 SLP092
                 T02610106 =
2018-05-25 10:54 METAR KMVL 251454Z AUTO 24011G21KT 200V300 10SM CLR 25/11 A2982 RMK AO2 SLP099
                 T02500111 58014 =
2018-05-25 09:54 METAR KMVL 251354Z AUTO 22015G20KT 10SM CLR 23/11 A2984 RMK AO2 SLP104 T02330106
                 =
2018-05-25 08:54 METAR KMVL 251254Z AUTO 22012G22KT 10SM BKN100 22/09 A2986 RMK AO2 SLP112
                 T02170094 =
2018-05-25 07:54 METAR KMVL 251154Z AUTO 22011G22KT 10SM BKN100 21/08 A2986 RMK AO2 SLP112
                 T02060083 10206 20067 58007 =
2018-05-25 06:54 METAR KMVL 251054Z AUTO 21012G18KT 10SM FEW100 19/08 A2988 RMK AO2 SLP116
                 T01940078 =

Support USWX by starting your Amazon purchase here.